• Join FlightAware (Why Join?)
  • Login
  • US Flag GB Flag 
06:47 EDT


 

Airport Tracker/Info


-or-


 

Live Flight TrackerFlight Track Log ✈ RPA3275 ✈ 26-May-2013 ✈ KALB - KPHL

Flight Track Log - Related Links

Times and Time Zones

All times are in EDT time to prevent confusion due to time zone crossing. See the RPA3275 flight status page for this flight to view local times or setup timezone preferences in your user account.

Time Position Orientation Groundspeed Altitude Reporting Facility
EDT Latitude Longitude Course Direction KTS MPH feet Rate Location/Type
12:56 42.7483 -73.8197 220° Southwest 144 166 1,700  Level Boston Center
12:57 42.7389 -73.9100 262° West 227 261 4,700 2,880 Climbing Boston Center
12:58 42.7333 -74.2724 270° West  Level FlightAware Approximate
12:58 42.7422 -73.9808 274° West 262 302 7,700  Level Boston Center
12:59 42.6660 -74.3904 220° Southwest  Level FlightAware Approximate
12:59 42.7408 -74.0825 269° West 268 308 11,100  Level Boston Center
13:00 42.5893 -74.4766 220° Southwest  Level FlightAware Approximate
13:00 42.7453 -74.2072 273° West 294 338 14,700  Level Boston Center
13:01 42.5158 -74.5676 220° Southwest  Level FlightAware Approximate
13:01 42.7331 -74.3142 261° West 317 365 16,100  Level Boston Center
13:02 42.6542 -74.4161 224° Southwest 335 386 16,100  Level Boston Center
13:03 42.5861 -74.4931 220° Southwest 353 406 16,100  Level Boston Center
13:04 42.5031 -74.5889 220° Southwest 359 413 16,100  Level Boston Center
13:05 42.4347 -74.6681 221° Southwest 365 420 16,200  Climbing Boston Center
13:07 42.2542 -74.8725 220° Southwest 358 412 16,200  Level New York Center
13:08 42.1764 -74.9544 218° Southwest 358 412 16,200  Level New York Center
13:09 42.0992 -75.0250 214° Southwest 370 426 16,200  Level New York Center
13:10 42.0131 -75.0975 212° Southwest 375 432 16,200  Level New York Center
13:11 41.9189 -75.1722 211° Southwest 375 432 16,200  Level New York Center
13:12 41.8331 -75.2417 211° Southwest 375 432 16,200  Level New York Center
13:13 41.7447 -75.3136 211° Southwest 380 437 16,200 -60 Level New York Center
13:14 41.6653 -75.3775 211° Southwest 380 437 16,100 -660 Descending New York Center
13:15 41.5814 -75.4467 212° Southwest 375 432 14,900 -1,680 Descending New York Center
13:16 41.4911 -75.5178 211° Southwest 362 417 12,800 -1,500 Descending New York Center
13:17 41.4094 -75.5811 210° Southwest 350 403 12,000 -420 Descending New York Center
13:18 41.3361 -75.6422 212° Southwest 345 397 12,000  Level New York Center
13:19 41.2433 -75.6686 192° South 351 404 12,000  Level New York Center
13:20 41.1508 -75.6428 168° South 340 391 12,000  Level New York Center
13:21 41.0417 -75.6100 167° South 355 409 12,000 -60 Level New York Center
13:22 40.9531 -75.5844 168° South 365 420 11,900 -60 Descending New York Center
13:23 40.8461 -75.5522 167° South 365 420 11,900  Level New York Center
13:24 40.7492 -75.5236 167° South 370 426 11,900  Level New York Center
13:25 40.6525 -75.4922 166° South 370 426 11,900 -60 Level New York Center
13:26 40.5639 -75.4672 168° South 370 426 11,800 -960 Descending New York Center
13:27 40.4611 -75.4356 167° South 359 413 10,000 -1,620 Descending New York Center
13:28 40.3794 -75.3919 158° South 334 384 8,600 -1,560 Descending New York Center
13:29 40.3064 -75.3925 180° South 307 353 6,900 -1,080 Descending New York Center
13:30 40.2217 -75.3758 171° South 307 353 6,500 -480 Descending New York Center
13:31 40.1483 -75.3303 155° Southeast 290 334 6,000 -300 Descending New York Center
13:32 40.0906 -75.2586 136° Southeast 290 334 6,000  Level New York Center
13:32 40.0667 -75.2167 127° Southeast 300 345 6,000 60 Level Philadelphia TRACON
13:34 40.0333 -75.1167 113° Southeast 234 269 6,100 -480 Climbing Philadelphia TRACON
13:35 40.0000 -74.9833 108° East 224 258 4,600 -780 Descending Philadelphia TRACON
13:36 39.9500 -74.9500 153° Southeast 185 213 4,000 -660 Descending Philadelphia TRACON
13:37 39.9167 -75.0000 229° Southwest 174 200 3,300 -600 Descending Philadelphia TRACON
13:38 39.9167 -75.0500 270° West 156 180 2,800 -720 Descending Philadelphia TRACON
13:39 39.9000 -75.1000 247° West 163 188 1,900 -840 Descending Philadelphia TRACON
13:40 39.8833 -75.1500 247° West 114 131 1,200 -720 Descending Philadelphia TRACON